Time;durP1;ratioP1;P1;durP2;ratioP2;P2;SDS_P1;SDS_P2;PMS_P1;PMS_P2;Temp;Humidity;BMP_temperature;BMP_pressure;BME280_temperature;BME280_humidity;BME280_pressure;Samples;Min_cycle;Max_cycle;Signal;HPM_P1;HPM_P2
2020/12/25 06:02:04;;;;;;;4.07;2.93;;;3.40;97.30;;;;;;5350071;23;20544;-73
2020/12/25 06:04:32;;;;;;;4.83;3.13;;;3.40;97.30;;;;;;4917393;29;20775;-73
2020/12/25 06:06:59;;;;;;;6.57;3.10;;;3.40;97.30;;;;;;4918404;29;20413;-73
2020/12/25 06:09:30;;;;;;;6.20;3.20;;;3.40;97.30;;;;;;4919942;29;20401;-72
2020/12/25 06:11:56;;;;;;;5.57;3.20;;;3.40;97.30;;;;;;4918352;29;20449;-72
2020/12/25 06:14:22;;;;;;;4.20;3.70;;;3.30;97.30;;;;;;4918554;29;20417;-73
2020/12/25 06:17:06;;;;;;;4.90;2.90;;;3.30;97.30;;;;;;4917544;29;20519;-73
2020/12/25 06:19:55;;;;;;;7.70;3.03;;;3.20;97.30;;;;;;4914619;29;20200;-72
2020/12/25 06:22:31;;;;;;;4.33;3.33;;;3.20;97.30;;;;;;4917874;29;20429;-73
2020/12/25 06:25:00;;;;;;;4.43;2.70;;;3.20;97.30;;;;;;4917921;29;20420;-73
2020/12/25 06:27:26;;;;;;;8.40;2.70;;;3.20;97.30;;;;;;4914872;29;20949;-72
2020/12/25 06:29:55;;;;;;;6.60;2.53;;;3.20;97.30;;;;;;4917525;29;20427;-73
2020/12/25 06:32:23;;;;;;;3.23;2.70;;;3.20;97.30;;;;;;4917699;29;20432;-73
2020/12/25 06:34:51;;;;;;;6.87;3.07;;;3.20;97.30;;;;;;4918892;29;20420;-73
2020/12/25 06:37:18;;;;;;;5.10;2.70;;;3.20;97.30;;;;;;4918911;29;20444;-73
2020/12/25 06:39:55;;;;;;;6.23;3.17;;;3.10;97.30;;;;;;4917752;29;20461;-73
2020/12/25 06:42:28;;;;;;;2.73;2.60;;;3.10;97.30;;;;;;4917375;29;20455;-73
2020/12/25 06:44:57;;;;;;;4.90;2.30;;;3.10;97.30;;;;;;4918529;29;20436;-73
2020/12/25 06:47:32;;;;;;;3.53;2.63;;;3.10;97.30;;;;;;4917558;29;20447;-73
2020/12/25 06:49:58;;;;;;;2.77;2.10;;;3.10;97.30;;;;;;4917896;29;20462;-73
2020/12/25 06:52:31;;;;;;;2.47;2.37;;;3.10;97.30;;;;;;4917664;29;20499;-73
2020/12/25 06:54:57;;;;;;;4.37;2.30;;;3.10;97.30;;;;;;4917730;29;20789;-73
2020/12/25 06:57:26;;;;;;;3.07;2.47;;;3.10;97.30;;;;;;4917761;29;20479;-73
2020/12/25 06:59:52;;;;;;;3.07;2.27;;;3.10;97.30;;;;;;4917308;29;20472;-73
2020/12/25 07:02:19;;;;;;;4.07;2.53;;;3.10;97.30;;;;;;4917547;29;20491;-73
2020/12/25 07:04:44;;;;;;;4.13;2.37;;;3.10;97.30;;;;;;4917334;29;20424;-73
2020/12/25 07:07:10;;;;;;;11.80;2.30;;;3.10;97.30;;;;;;4918909;29;20423;-73
2020/12/25 07:09:43;;;;;;;4.77;2.40;;;3.00;97.30;;;;;;4917646;29;20185;-72
2020/12/25 07:12:17;;;;;;;2.93;2.30;;;3.00;97.30;;;;;;4917372;29;20196;-73
2020/12/25 07:14:42;;;;;;;2.40;2.20;;;3.00;97.30;;;;;;4918557;29;20512;-72
2020/12/25 07:17:09;;;;;;;2.00;1.90;;;3.00;97.30;;;;;;4917173;29;20841;-72
2020/12/25 07:19:35;;;;;;;2.27;2.00;;;3.00;97.30;;;;;;4918519;29;20613;-73
2020/12/25 07:22:03;;;;;;;2.30;2.13;;;3.00;97.30;;;;;;4916976;29;20441;-73
2020/12/25 07:24:28;;;;;;;2.63;1.63;;;3.00;97.30;;;;;;4917056;29;20428;-72
2020/12/25 07:26:54;;;;;;;2.10;1.97;;;3.00;97.30;;;;;;4918407;29;20503;-73
2020/12/25 07:29:21;;;;;;;2.57;1.93;;;3.00;97.30;;;;;;4918435;29;20177;-72
2020/12/25 07:31:52;;;;;;;4.10;2.07;;;3.00;97.30;;;;;;4918191;29;20443;-73
2020/12/25 07:34:22;;;;;;;3.50;2.30;;;3.00;97.30;;;;;;4917877;29;20978;-70
2020/12/25 07:36:49;;;;;;;2.53;2.30;;;3.10;97.30;;;;;;4916611;29;20436;-73
2020/12/25 07:39:15;;;;;;;5.17;2.80;;;3.00;97.30;;;;;;4917998;29;20468;-73
2020/12/25 07:41:42;;;;;;;2.30;2.10;;;3.00;97.30;;;;;;4916778;29;20515;-72
2020/12/25 07:44:08;;;;;;;3.13;2.00;;;3.00;97.30;;;;;;4915945;29;20436;-72
2020/12/25 07:46:34;;;;;;;4.63;2.23;;;3.00;97.30;;;;;;4915917;29;20993;-72
2020/12/25 07:49:01;;;;;;;3.23;2.27;;;3.00;97.30;;;;;;4915527;29;20169;-72
2020/12/25 07:51:28;;;;;;;3.43;2.10;;;3.00;97.30;;;;;;4917291;29;20936;-73
2020/12/25 07:54:01;;;;;;;2.20;2.00;;;3.00;97.30;;;;;;4916049;29;20413;-72
2020/12/25 07:56:34;;;;;;;7.47;2.53;;;3.00;97.30;;;;;;4916331;29;20421;-73
2020/12/25 07:59:01;;;;;;;2.20;2.00;;;3.00;97.30;;;;;;4914216;29;20424;-73
2020/12/25 08:01:29;;;;;;;2.23;1.90;;;3.00;97.30;;;;;;4916948;29;20456;-72
2020/12/25 08:03:57;;;;;;;4.70;2.00;;;3.00;97.30;;;;;;4916222;29;20413;-72
2020/12/25 08:06:25;;;;;;;2.80;1.77;;;3.00;97.30;;;;;;4915957;29;20440;-72
2020/12/25 08:08:58;;;;;;;2.23;2.03;;;2.90;97.30;;;;;;4916571;29;20475;-72
2020/12/25 08:11:27;;;;;;;2.40;2.13;;;2.90;97.30;;;;;;4915855;29;20448;-72
2020/12/25 08:14:02;;;;;;;3.47;2.17;;;2.90;97.30;;;;;;4915877;29;20477;-72
2020/12/25 08:16:31;;;;;;;6.60;3.70;;;2.90;97.30;;;;;;4917601;29;20416;-72
2020/12/25 08:18:56;;;;;;;3.63;2.30;;;2.90;97.30;;;;;;4916219;29;20428;-72
2020/12/25 08:21:33;;;;;;;3.70;2.30;;;2.90;97.30;;;;;;4916215;29;20437;-71
2020/12/25 08:24:01;;;;;;;2.30;2.13;;;2.90;97.30;;;;;;4916014;29;20176;-72
2020/12/25 08:26:40;;;;;;;1.70;1.60;;;2.90;97.30;;;;;;4915998;29;20412;-72
2020/12/25 08:29:06;;;;;;;2.40;2.20;;;2.90;97.30;;;;;;4915402;29;20963;-72
2020/12/25 08:31:37;;;;;;;2.40;2.20;;;2.90;97.30;;;;;;4916419;29;20451;-72
2020/12/25 08:34:04;;;;;;;2.40;2.10;;;2.80;97.30;;;;;;4915874;29;20420;-73
2020/12/25 08:36:30;;;;;;;2.70;2.03;;;2.80;97.30;;;;;;4932116;29;20421;-72
2020/12/25 08:38:55;;;;;;;5.23;2.30;;;2.80;97.30;;;;;;4931628;29;20480;-72
2020/12/25 08:41:28;;;;;;;2.70;1.93;;;2.90;97.30;;;;;;4916123;29;20511;-72
2020/12/25 08:43:55;;;;;;;3.87;1.67;;;2.90;97.30;;;;;;4914348;29;20615;-72
2020/12/25 08:46:22;;;;;;;2.50;1.90;;;2.90;97.30;;;;;;4916078;29;20425;-72
2020/12/25 08:48:51;;;;;;;2.57;2.00;;;2.90;97.30;;;;;;4915869;29;20417;-72
2020/12/25 08:51:17;;;;;;;2.03;1.80;;;2.90;97.30;;;;;;4915146;29;20484;-72
2020/12/25 08:54:09;;;;;;;2.20;2.00;;;2.90;97.30;;;;;;4915638;29;20424;-71
2020/12/25 08:56:36;;;;;;;3.70;2.03;;;2.90;97.30;;;;;;4912795;29;21071;-71
2020/12/25 08:59:07;;;;;;;3.03;1.80;;;3.00;97.30;;;;;;4915664;29;20523;-72
2020/12/25 09:01:36;;;;;;;4.40;2.17;;;3.00;97.30;;;;;;4915557;29;20819;-72
2020/12/25 09:04:03;;;;;;;3.50;2.43;;;3.00;97.30;;;;;;4916351;29;20444;-71
2020/12/25 09:06:29;;;;;;;4.17;2.27;;;3.00;97.30;;;;;;4915724;29;20421;-72
2020/12/25 09:08:55;;;;;;;4.50;2.90;;;3.00;97.30;;;;;;4915742;29;20420;-71
2020/12/25 09:11:23;;;;;;;3.23;2.30;;;3.00;97.30;;;;;;4917093;29;20437;-72
2020/12/25 09:13:49;;;;;;;3.00;2.20;;;3.00;97.30;;;;;;4915570;29;20417;-72
2020/12/25 09:16:15;;;;;;;2.40;1.90;;;3.10;97.30;;;;;;4915819;29;20476;-72
2020/12/25 09:18:42;;;;;;;4.30;2.07;;;3.10;97.30;;;;;;4915378;29;20425;-72
2020/12/25 09:21:10;;;;;;;6.73;2.20;;;3.00;97.30;;;;;;4917138;29;20757;-72
2020/12/25 09:23:39;;;;;;;4.40;2.10;;;3.10;97.30;;;;;;4915134;29;20416;-71
2020/12/25 09:26:10;;;;;;;4.13;2.30;;;3.00;97.30;;;;;;4916997;29;20411;-72
2020/12/25 09:28:37;;;;;;;2.90;2.13;;;3.10;97.30;;;;;;4917064;29;20962;-72
2020/12/25 09:31:09;;;;;;;4.13;2.47;;;3.10;97.30;;;;;;4916805;29;20439;-72
2020/12/25 09:33:36;;;;;;;5.00;2.20;;;3.10;97.30;;;;;;4931264;29;20449;-72
2020/12/25 09:36:04;;;;;;;3.37;2.30;;;3.10;97.30;;;;;;4915708;29;20511;-72
2020/12/25 09:38:29;;;;;;;3.47;2.50;;;3.10;97.30;;;;;;4915397;29;20918;-72
2020/12/25 09:40:55;;;;;;;3.53;2.40;;;3.10;97.30;;;;;;4915333;29;20504;-72
2020/12/25 09:43:21;;;;;;;3.90;2.40;;;3.10;97.30;;;;;;4915103;29;20413;-72
2020/12/25 09:45:47;;;;;;;5.80;3.77;;;3.20;97.30;;;;;;4916670;29;20417;-72
2020/12/25 09:48:13;;;;;;;4.57;2.90;;;3.20;97.30;;;;;;4916740;29;20476;-72
2020/12/25 09:50:41;;;;;;;2.50;2.30;;;3.30;97.30;;;;;;4915134;29;20203;-71
2020/12/25 09:53:07;;;;;;;3.53;2.33;;;3.30;97.30;;;;;;4916063;29;20800;-71
2020/12/25 09:55:37;;;;;;;3.93;2.40;;;3.30;97.30;;;;;;4914676;29;20433;-71
2020/12/25 09:58:03;;;;;;;4.57;1.77;;;3.30;97.30;;;;;;4915106;29;20271;-71
2020/12/25 10:00:29;;;;;;;6.93;2.10;;;3.30;97.30;;;;;;4916052;29;20472;-72
2020/12/25 10:02:55;;;;;;;2.67;1.70;;;3.40;97.30;;;;;;4918298;29;20427;-71
2020/12/25 10:05:20;;;;;;;3.20;1.73;;;3.50;97.30;;;;;;4920070;29;20177;-71
2020/12/25 10:07:48;;;;;;;2.10;1.90;;;3.50;97.30;;;;;;4919326;29;20197;-71
2020/12/25 10:10:14;;;;;;;3.67;1.50;;;3.50;97.30;;;;;;4917820;29;20533;-70
2020/12/25 10:12:40;;;;;;;3.43;1.77;;;3.50;97.30;;;;;;4918227;29;20782;-72
2020/12/25 10:15:06;;;;;;;2.87;1.50;;;3.50;97.30;;;;;;4918032;29;20419;-72
2020/12/25 10:17:33;;;;;;;3.63;1.67;;;3.50;97.30;;;;;;4934316;29;20180;-71
2020/12/25 10:19:59;;;;;;;4.63;1.80;;;3.50;97.30;;;;;;4918269;29;20263;-72
2020/12/25 10:22:24;;;;;;;2.17;1.40;;;3.50;97.30;;;;;;4918195;29;20441;-71
2020/12/25 10:24:51;;;;;;;1.90;1.80;;;3.50;97.30;;;;;;4917930;29;20428;-72
2020/12/25 10:27:25;;;;;;;1.90;1.70;;;3.50;97.30;;;;;;4925971;29;20196;-72
2020/12/25 10:29:58;;;;;;;3.50;2.00;;;3.50;97.30;;;;;;4922611;29;20450;-71
2020/12/25 10:32:26;;;;;;;2.53;2.00;;;3.60;97.30;;;;;;4916601;29;20448;-72
2020/12/25 10:34:52;;;;;;;2.40;2.10;;;3.60;97.30;;;;;;4924628;29;20421;-71
2020/12/25 10:37:19;;;;;;;2.03;1.93;;;3.60;97.30;;;;;;4929568;29;20413;-71
2020/12/25 10:39:48;;;;;;;2.20;1.70;;;3.60;97.30;;;;;;4927161;29;20455;-71
2020/12/25 10:42:14;;;;;;;3.97;2.13;;;3.60;97.30;;;;;;4926591;29;20955;-71
2020/12/25 10:44:41;;;;;;;4.60;2.70;;;3.60;97.30;;;;;;4925891;29;20798;-71
2020/12/25 10:47:06;;;;;;;3.57;1.90;;;3.50;97.30;;;;;;4928066;29;20415;-71
2020/12/25 10:49:32;;;;;;;3.00;1.90;;;3.50;97.30;;;;;;4937877;29;20404;-71
2020/12/25 10:51:58;;;;;;;2.10;1.83;;;3.60;97.30;;;;;;4937755;29;20206;-71
2020/12/25 10:54:24;;;;;;;3.23;2.03;;;3.60;97.30;;;;;;4936519;29;20180;-72
2020/12/25 10:56:50;;;;;;;4.67;2.10;;;3.60;97.30;;;;;;4936644;29;20202;-72
2020/12/25 10:59:16;;;;;;;2.80;1.90;;;3.70;97.30;;;;;;4936395;29;20255;-72
2020/12/25 11:01:46;;;;;;;1.83;1.73;;;3.60;97.30;;;;;;4937662;29;20824;-71
2020/12/25 11:04:12;;;;;;;5.73;2.33;;;3.60;97.30;;;;;;4936374;29;20202;-71
2020/12/25 11:06:38;;;;;;;2.50;1.63;;;3.70;97.30;;;;;;4937767;29;20448;-71
2020/12/25 11:09:06;;;;;;;3.83;2.30;;;3.70;97.30;;;;;;4937629;29;20422;-71
2020/12/25 11:11:33;;;;;;;3.80;2.20;;;3.60;97.30;;;;;;4936419;29;20200;-71
2020/12/25 11:14:00;;;;;;;3.53;2.67;;;3.60;97.30;;;;;;4935707;29;20448;-71
2020/12/25 11:16:27;;;;;;;4.30;2.60;;;3.50;97.30;;;;;;4936589;29;20495;-72
2020/12/25 11:18:57;;;;;;;3.00;2.30;;;3.40;97.30;;;;;;4936410;29;20773;-71
2020/12/25 11:21:28;;;;;;;5.63;2.13;;;3.40;97.30;;;;;;4924777;29;20477;-71
2020/12/25 11:23:56;;;;;;;2.80;1.93;;;3.40;97.30;;;;;;4906436;29;20518;-73
2020/12/25 11:26:24;;;;;;;2.50;1.97;;;3.30;97.30;;;;;;4898493;29;20474;-71
2020/12/25 11:28:56;;;;;;;3.53;2.27;;;3.20;97.30;;;;;;4898242;29;20417;-71
2020/12/25 11:31:22;;;;;;;2.23;2.07;;;3.20;97.30;;;;;;4899785;29;20437;-71
2020/12/25 11:33:49;;;;;;;4.20;2.30;;;3.20;97.30;;;;;;4898223;29;20429;-71
2020/12/25 11:36:19;;;;;;;2.60;2.30;;;3.10;97.30;;;;;;4907942;29;20447;-71
2020/12/25 11:38:46;;;;;;;2.60;2.40;;;3.20;97.30;;;;;;4916737;29;20429;-71
2020/12/25 11:41:15;;;;;;;7.33;2.37;;;3.20;97.30;;;;;;4916435;29;20472;-71
2020/12/25 11:43:41;;;;;;;2.60;2.33;;;3.20;97.30;;;;;;4917545;29;20405;-72
2020/12/25 11:46:07;;;;;;;4.80;2.90;;;3.20;97.30;;;;;;4917930;29;20495;-72
2020/12/25 11:48:34;;;;;;;4.70;3.13;;;3.30;97.30;;;;;;4916935;29;20509;-71
2020/12/25 11:51:00;;;;;;;4.60;2.93;;;3.30;97.30;;;;;;4918188;29;20810;-71
2020/12/25 11:53:26;;;;;;;4.40;3.00;;;3.30;97.30;;;;;;4916386;29;20452;-72
2020/12/25 11:55:52;;;;;;;6.73;3.50;;;3.30;97.30;;;;;;4917905;29;20417;-71
2020/12/25 11:58:18;;;;;;;6.27;3.80;;;3.30;97.30;;;;;;4916769;29;20453;-71
2020/12/25 12:00:44;;;;;;;3.50;3.27;;;3.30;97.30;;;;;;4915788;29;20231;-71
2020/12/25 12:03:11;;;;;;;4.97;3.53;;;3.30;97.30;;;;;;4916481;29;20429;-71
2020/12/25 12:05:44;;;;;;;5.47;3.00;;;3.30;97.30;;;;;;4916220;29;20806;-71
2020/12/25 12:08:11;;;;;;;9.80;3.20;;;3.30;97.30;;;;;;4917511;29;20417;-72
2020/12/25 12:10:38;;;;;;;7.30;4.03;;;3.30;97.30;;;;;;4916548;29;20444;-71
2020/12/25 12:13:05;;;;;;;4.43;3.50;;;3.40;97.30;;;;;;4916275;29;20421;-71
2020/12/25 12:15:40;;;;;;;4.17;3.30;;;3.40;97.30;;;;;;4917970;29;20484;-71
2020/12/25 12:18:07;;;;;;;6.30;3.80;;;3.40;97.30;;;;;;4916750;29;20857;-71
2020/12/25 12:20:34;;;;;;;6.53;3.30;;;3.40;97.30;;;;;;4916103;29;20485;-71
2020/12/25 12:23:01;;;;;;;5.70;3.13;;;3.40;97.30;;;;;;4917449;29;20425;-71
2020/12/25 12:25:28;;;;;;;5.30;3.67;;;3.40;97.30;;;;;;4917053;29;20416;-71
2020/12/25 12:27:54;;;;;;;5.90;3.20;;;3.40;97.30;;;;;;4917419;29;20413;-71
2020/12/25 12:30:21;;;;;;;3.67;2.80;;;3.40;97.30;;;;;;4916095;29;20413;-71
2020/12/25 12:32:47;;;;;;;8.67;3.10;;;3.40;97.30;;;;;;4917544;29;20479;-71
2020/12/25 12:35:13;;;;;;;5.70;3.23;;;3.30;97.30;;;;;;4916023;29;20429;-72
2020/12/25 12:37:40;;;;;;;5.30;3.50;;;3.30;97.30;;;;;;4915779;29;20184;-71
2020/12/25 12:40:07;;;;;;;7.60;3.30;;;3.20;97.30;;;;;;4913715;29;20480;-71
2020/12/25 12:42:34;;;;;;;5.80;3.97;;;3.20;97.30;;;;;;4912602;29;20446;-71
2020/12/25 12:45:00;;;;;;;5.20;4.07;;;3.20;97.30;;;;;;4914286;29;21025;-71
2020/12/25 12:47:28;;;;;;;7.60;4.80;;;3.20;97.30;;;;;;4916984;29;20436;-71
2020/12/25 12:49:55;;;;;;;5.67;3.50;;;3.20;97.30;;;;;;4915599;29;20957;-71
2020/12/25 12:52:21;;;;;;;7.13;4.37;;;3.20;97.30;;;;;;4915756;29;20477;-71
2020/12/25 12:54:47;;;;;;;7.17;3.80;;;3.20;97.30;;;;;;4916848;29;20416;-71
2020/12/25 12:57:13;;;;;;;4.30;3.47;;;3.20;97.30;;;;;;4915818;29;20500;-72
2020/12/25 12:59:39;;;;;;;4.80;3.90;;;3.20;97.30;;;;;;4916577;29;20508;-71
2020/12/25 13:02:05;;;;;;;7.00;4.73;;;3.20;97.30;;;;;;4915892;29;20243;-71
2020/12/25 13:04:31;;;;;;;8.03;4.17;;;3.20;97.30;;;;;;4916029;29;20452;-71
2020/12/25 13:06:57;;;;;;;4.33;3.90;;;3.30;97.30;;;;;;4915215;29;20993;-71
2020/12/25 13:09:22;;;;;;;6.13;3.57;;;3.30;97.30;;;;;;4916777;29;20172;-71
2020/12/25 13:11:52;;;;;;;4.73;3.40;;;3.30;97.30;;;;;;4919606;23;20283;-71
2020/12/25 13:14:18;;;;;;;4.30;3.70;;;3.30;97.30;;;;;;4897696;29;20184;-71
2020/12/25 13:16:44;;;;;;;4.70;3.63;;;3.30;97.30;;;;;;4896349;29;20410;-71
2020/12/25 13:19:11;;;;;;;5.30;3.10;;;3.30;97.30;;;;;;4897615;29;20188;-71
2020/12/25 13:21:37;;;;;;;7.13;3.60;;;3.30;97.30;;;;;;4896561;29;20197;-71
2020/12/25 13:24:03;;;;;;;4.17;3.13;;;3.30;97.30;;;;;;4897930;29;20410;-71
2020/12/25 13:26:29;;;;;;;5.87;3.27;;;3.30;97.30;;;;;;4897947;29;20689;-71
2020/12/25 13:28:54;;;;;;;3.80;2.70;;;3.20;97.30;;;;;;4897671;29;20438;-72
2020/12/25 13:31:24;;;;;;;6.27;3.70;;;3.20;97.30;;;;;;4896383;29;20201;-71
2020/12/25 13:33:52;;;;;;;3.80;2.60;;;3.20;97.30;;;;;;4896235;29;20221;-71
2020/12/25 13:36:20;;;;;;;4.63;3.07;;;3.20;97.30;;;;;;4905249;29;20969;-71
2020/12/25 13:38:47;;;;;;;4.67;3.37;;;3.20;97.30;;;;;;4918647;29;20435;-71
2020/12/25 13:41:15;;;;;;;5.50;3.13;;;3.20;97.30;;;;;;4919134;29;20590;-71
2020/12/25 13:43:42;;;;;;;7.23;3.10;;;3.20;97.30;;;;;;4913933;29;20461;-71
2020/12/25 13:46:15;;;;;;;4.00;2.80;;;3.20;97.30;;;;;;4899227;29;20429;-71
2020/12/25 13:48:42;;;;;;;3.60;3.00;;;3.20;97.30;;;;;;4885637;29;20520;-72
2020/12/25 13:51:19;;;;;;;4.77;2.70;;;3.20;97.30;;;;;;4899997;29;20508;-71
2020/12/25 13:53:46;;;;;;;2.40;2.20;;;3.20;97.30;;;;;;4899970;29;20451;-71
2020/12/25 13:56:15;;;;;;;5.70;3.13;;;3.20;97.30;;;;;;4900161;29;20787;-72
2020/12/25 13:58:43;;;;;;;4.93;2.63;;;3.20;97.30;;;;;;4884528;29;20425;-71
2020/12/25 14:01:12;;;;;;;5.30;3.70;;;3.20;97.30;;;;;;4899363;29;20485;-71
2020/12/25 14:03:39;;;;;;;26.20;11.77;;;3.20;97.30;;;;;;4899886;29;20429;-71
2020/12/25 14:06:06;;;;;;;12.13;3.90;;;3.20;97.30;;;;;;4899444;29;20935;-71
2020/12/25 14:08:32;;;;;;;23.40;10.47;;;3.20;97.30;;;;;;4899914;29;20430;-71
2020/12/25 14:10:58;;;;;;;80.13;33.37;;;3.20;97.30;;;;;;4899290;29;20473;-71
2020/12/25 14:13:24;;;;;;;15.90;9.23;;;3.20;97.30;;;;;;4901017;29;20885;-71
2020/12/25 14:15:53;;;;;;;14.07;5.43;;;3.20;97.30;;;;;;4899751;29;20421;-71
2020/12/25 14:18:19;;;;;;;3.70;3.10;;;3.20;97.30;;;;;;4896563;29;20448;-71
2020/12/25 14:20:47;;;;;;;4.03;2.37;;;3.10;97.30;;;;;;4880601;29;21003;-71
2020/12/25 14:23:15;;;;;;;4.33;2.40;;;3.10;97.30;;;;;;4880778;29;20174;-71
2020/12/25 14:25:41;;;;;;;2.43;2.23;;;3.10;97.30;;;;;;4881901;29;20446;-71
2020/12/25 14:28:07;;;;;;;5.90;3.20;;;3.10;97.30;;;;;;4880864;29;20450;-71
2020/12/25 14:30:33;;;;;;;4.40;2.20;;;3.10;97.30;;;;;;4882016;29;20414;-71
2020/12/25 14:33:01;;;;;;;3.77;2.80;;;3.10;97.30;;;;;;4880739;29;20432;-71
2020/12/25 14:35:28;;;;;;;12.30;5.93;;;3.10;97.30;;;;;;4886475;29;20415;-71
2020/12/25 14:37:54;;;;;;;8.13;2.90;;;3.10;97.30;;;;;;4911518;29;20432;-71
2020/12/25 14:40:20;;;;;;;4.97;2.73;;;3.10;97.30;;;;;;4900333;29;20457;-71
2020/12/25 14:42:46;;;;;;;9.33;4.20;;;3.10;97.30;;;;;;4896054;29;20598;-71
2020/12/25 14:45:13;;;;;;;145.40;39.83;;;3.00;97.30;;;;;;4899250;29;20433;-71
2020/12/25 14:47:39;;;;;;;65.03;20.27;;;3.00;97.30;;;;;;4900178;29;20801;-71
2020/12/25 14:50:05;;;;;;;11.80;5.90;;;3.00;97.30;;;;;;4898246;29;20422;-71
2020/12/25 14:52:31;;;;;;;66.60;29.30;;;3.00;97.30;;;;;;4898925;29;20437;-71
2020/12/25 14:54:56;;;;;;;50.90;22.00;;;3.00;97.30;;;;;;4898808;29;20433;-71
2020/12/25 14:57:22;;;;;;;18.50;6.47;;;2.90;97.30;;;;;;4895570;29;20272;-71
2020/12/25 14:59:48;;;;;;;5.30;3.50;;;2.90;97.30;;;;;;4880028;29;20699;-71
2020/12/25 15:02:14;;;;;;;9.23;3.70;;;2.90;97.30;;;;;;4881355;29;20454;-71
2020/12/25 15:04:39;;;;;;;5.90;4.00;;;2.90;97.30;;;;;;4880097;29;20596;-71
2020/12/25 15:07:07;;;;;;;14.20;5.50;;;2.90;97.30;;;;;;4897212;29;20198;-71
2020/12/25 15:09:32;;;;;;;8.13;3.50;;;2.90;97.30;;;;;;4898685;29;20205;-71
2020/12/25 15:12:02;;;;;;;7.07;3.57;;;2.80;97.30;;;;;;4898671;29;21049;-71
2020/12/25 15:14:28;;;;;;;8.30;3.57;;;2.80;97.30;;;;;;4899493;29;20236;-71
2020/12/25 15:16:54;;;;;;;9.30;3.50;;;2.80;97.30;;;;;;4898185;29;20476;-71
2020/12/25 15:19:21;;;;;;;4.80;2.80;;;2.80;97.30;;;;;;4899691;29;20181;-71
2020/12/25 15:21:47;;;;;;;5.40;3.03;;;2.80;97.30;;;;;;4899142;29;20197;-71
2020/12/25 15:24:15;;;;;;;4.70;3.50;;;2.80;97.30;;;;;;4898095;29;20841;-71
2020/12/25 15:26:41;;;;;;;6.40;3.57;;;2.80;97.30;;;;;;4898246;29;20477;-71
2020/12/25 15:29:07;;;;;;;5.60;2.70;;;2.80;97.30;;;;;;4898212;29;20488;-71
2020/12/25 15:31:33;;;;;;;4.73;2.37;;;2.80;97.30;;;;;;4898326;29;20494;-71
2020/12/25 15:33:59;;;;;;;5.00;3.10;;;2.80;97.30;;;;;;4897730;29;20193;-71
2020/12/25 15:36:26;;;;;;;10.17;5.07;;;2.80;97.30;;;;;;4898542;29;20462;-71
2020/12/25 15:38:57;;;;;;;6.33;3.00;;;2.80;97.30;;;;;;4900376;29;20264;-71
2020/12/25 15:41:24;;;;;;;5.80;2.83;;;2.70;97.30;;;;;;4898296;29;20851;-71
2020/12/25 15:43:50;;;;;;;6.77;2.80;;;2.70;97.30;;;;;;4898137;29;20802;-71
2020/12/25 15:46:17;;;;;;;3.93;3.07;;;2.70;97.30;;;;;;4898956;29;20441;-71
2020/12/25 15:48:44;;;;;;;5.40;2.67;;;2.70;97.30;;;;;;4893091;29;20451;-71
2020/12/25 15:51:12;;;;;;;6.50;3.00;;;2.70;97.30;;;;;;4896851;29;20516;-70
2020/12/25 15:53:38;;;;;;;8.13;2.93;;;2.70;97.30;;;;;;4898207;29;20469;-71
2020/12/25 15:56:04;;;;;;;5.80;3.40;;;2.70;97.30;;;;;;4883146;29;20789;-70
2020/12/25 15:58:30;;;;;;;6.57;2.67;;;2.70;97.30;;;;;;4916006;29;20435;-71
2020/12/25 16:00:57;;;;;;;4.43;2.53;;;2.70;97.30;;;;;;4892513;29;20489;-71
2020/12/25 16:03:27;;;;;;;6.20;2.70;;;2.70;97.30;;;;;;4897146;29;20516;-70
2020/12/25 16:05:54;;;;;;;4.97;2.80;;;2.70;97.30;;;;;;4896888;29;20426;-70
2020/12/25 16:08:21;;;;;;;4.93;2.53;;;2.60;97.30;;;;;;4897627;29;20436;-71
2020/12/25 16:10:47;;;;;;;5.27;2.80;;;2.60;97.30;;;;;;4897624;29;20545;-72
2020/12/25 16:13:13;;;;;;;3.90;2.70;;;2.60;97.30;;;;;;4898704;29;20872;-71
2020/12/25 16:15:39;;;;;;;5.90;2.50;;;2.60;97.30;;;;;;4897721;29;20421;-72
2020/12/25 16:18:05;;;;;;;6.37;2.83;;;2.60;97.30;;;;;;4897461;29;20178;-71
2020/12/25 16:20:31;;;;;;;7.50;3.67;;;2.70;97.30;;;;;;4898647;29;20566;-72
2020/12/25 16:22:58;;;;;;;2.40;2.20;;;2.70;97.30;;;;;;4898337;29;20418;-71
2020/12/25 16:25:24;;;;;;;4.20;3.30;;;2.80;97.30;;;;;;4898667;29;20836;-71
2020/12/25 16:27:50;;;;;;;4.53;2.73;;;2.80;97.30;;;;;;4897333;29;20409;-71
2020/12/25 16:30:16;;;;;;;10.00;2.53;;;2.90;97.30;;;;;;4898509;29;20228;-72
2020/12/25 16:32:41;;;;;;;7.27;2.87;;;2.90;97.30;;;;;;4897073;29;20193;-71
2020/12/25 16:35:08;;;;;;;4.93;3.60;;;2.90;97.30;;;;;;4897157;29;20425;-72
2020/12/25 16:37:35;;;;;;;4.83;2.87;;;3.00;97.30;;;;;;4897517;29;20189;-71
2020/12/25 16:40:01;;;;;;;5.73;2.50;;;3.00;97.30;;;;;;4917156;29;20496;-71
2020/12/25 16:42:26;;;;;;;7.90;2.73;;;3.00;97.30;;;;;;4908057;29;20846;-71
2020/12/25 16:44:52;;;;;;;4.90;2.30;;;3.00;97.30;;;;;;4898339;29;20174;-71
2020/12/25 16:47:18;;;;;;;4.43;2.83;;;3.00;97.30;;;;;;4896837;29;20189;-70
2020/12/25 16:49:44;;;;;;;4.70;2.70;;;3.00;97.30;;;;;;4897331;29;20609;-71
2020/12/25 16:52:10;;;;;;;4.03;2.43;;;3.10;97.30;;;;;;4898016;29;20208;-71
2020/12/25 16:54:35;;;;;;;4.10;2.60;;;3.10;97.30;;;;;;4897701;29;20885;-71
2020/12/25 16:57:01;;;;;;;8.83;2.63;;;3.10;97.30;;;;;;4898238;29;20418;-71
2020/12/25 16:59:27;;;;;;;5.67;3.27;;;3.10;97.30;;;;;;4897866;29;20197;-71
2020/12/25 17:01:52;;;;;;;4.47;2.57;;;3.10;97.30;;;;;;4896620;29;20193;-71
2020/12/25 17:04:18;;;;;;;4.47;2.53;;;3.10;97.30;;;;;;4896454;29;20182;-71
2020/12/25 17:06:44;;;;;;;3.10;2.60;;;3.20;97.30;;;;;;4911790;29;20564;-71
2020/12/25 17:09:09;;;;;;;11.50;2.83;;;3.20;97.30;;;;;;4912372;29;20232;-72
2020/12/25 17:11:36;;;;;;;7.00;2.40;;;3.20;97.30;;;;;;4896207;29;20217;-70
2020/12/25 17:14:03;;;;;;;3.27;2.67;;;3.10;97.30;;;;;;4895673;29;20707;-70
2020/12/25 17:16:35;;;;;;;4.67;2.60;;;3.20;97.30;;;;;;4896843;29;20493;-71
2020/12/25 17:19:01;;;;;;;5.33;2.60;;;3.20;97.30;;;;;;4896907;29;20990;-70
2020/12/25 17:21:27;;;;;;;6.00;3.47;;;3.20;97.30;;;;;;4898076;29;20457;-71
2020/12/25 17:23:52;;;;;;;5.93;4.00;;;3.20;97.30;;;;;;4896343;29;20473;-70
2020/12/25 17:26:20;;;;;;;6.23;2.87;;;3.20;97.30;;;;;;4896620;29;20193;-70
2020/12/25 17:28:46;;;;;;;6.10;3.30;;;3.20;97.30;;;;;;4897834;29;20332;-70
2020/12/25 17:31:12;;;;;;;5.87;3.00;;;3.20;97.30;;;;;;4897918;29;20441;-71
2020/12/25 17:33:39;;;;;;;7.37;2.77;;;3.10;97.30;;;;;;4897592;29;20924;-71
2020/12/25 17:36:10;;;;;;;9.00;3.50;;;3.10;97.30;;;;;;4896612;29;20430;-70
2020/12/25 17:38:36;;;;;;;5.50;3.20;;;3.10;97.30;;;;;;4896626;29;20418;-71
2020/12/25 17:41:03;;;;;;;5.50;3.10;;;3.10;97.30;;;;;;4897698;29;20469;-71
2020/12/25 17:43:31;;;;;;;6.20;3.13;;;3.10;97.30;;;;;;4895968;29;20430;-71
2020/12/25 17:45:56;;;;;;;7.27;3.70;;;3.10;97.30;;;;;;4897683;29;20417;-71
2020/12/25 17:48:22;;;;;;;6.40;3.37;;;3.10;97.30;;;;;;4896185;29;20422;-71
2020/12/25 17:50:48;;;;;;;7.80;3.77;;;3.00;97.30;;;;;;4896648;29;20212;-71
2020/12/25 17:53:13;;;;;;;6.73;3.17;;;3.00;97.30;;;;;;4895372;29;20177;-71
2020/12/25 17:55:39;;;;;;;11.43;3.73;;;3.00;97.30;;;;;;4895787;29;20547;-71
2020/12/25 17:58:06;;;;;;;8.60;4.23;;;2.90;97.30;;;;;;4897332;29;20256;-72
2020/12/25 18:00:34;;;;;;;6.57;3.80;;;3.00;97.30;;;;;;4896049;29;20240;-72
2020/12/25 18:03:01;;;;;;;11.03;3.90;;;3.00;97.30;;;;;;4895175;29;20794;-72
2020/12/25 18:05:27;;;;;;;11.07;3.80;;;3.00;97.30;;;;;;4896508;29;20421;-72
2020/12/25 18:07:54;;;;;;;4.00;3.13;;;3.10;97.30;;;;;;4896175;29;20424;-72
2020/12/25 18:10:20;;;;;;;9.13;3.93;;;3.00;97.30;;;;;;4895930;29;20417;-72
2020/12/25 18:12:46;;;;;;;12.63;4.37;;;3.10;97.30;;;;;;4895880;29;20432;-72
2020/12/25 18:15:12;;;;;;;7.03;3.27;;;3.10;97.30;;;;;;4896228;29;20636;-71
2020/12/25 18:17:38;;;;;;;10.20;4.37;;;3.10;97.30;;;;;;4897385;29;20422;-71
2020/12/25 18:20:04;;;;;;;5.80;3.33;;;3.10;97.30;;;;;;4897160;29;20272;-71
2020/12/25 18:22:30;;;;;;;4.67;3.67;;;3.20;97.30;;;;;;4897070;29;20437;-72
2020/12/25 18:24:55;;;;;;;8.00;3.50;;;3.30;97.30;;;;;;4897200;29;20193;-72
2020/12/25 18:27:22;;;;;;;6.23;3.70;;;3.30;97.30;;;;;;4899246;29;20191;-72
2020/12/25 18:29:48;;;;;;;6.93;4.07;;;3.30;97.30;;;;;;4900695;29;20272;-72
2020/12/25 18:32:14;;;;;;;7.73;3.70;;;3.30;97.30;;;;;;4900577;29;20991;-72
2020/12/25 18:34:40;;;;;;;7.57;4.17;;;3.30;97.30;;;;;;4898993;29;20193;-72
2020/12/25 18:37:05;;;;;;;10.57;3.70;;;3.20;97.30;;;;;;4899416;29;20189;-71
2020/12/25 18:39:31;;;;;;;8.20;3.97;;;3.30;97.30;;;;;;4900270;29;20457;-71
2020/12/25 18:41:57;;;;;;;5.07;3.07;;;3.20;97.30;;;;;;4900021;29;20200;-72
2020/12/25 18:44:23;;;;;;;6.23;4.03;;;3.20;97.30;;;;;;4899644;29;20422;-71
2020/12/25 18:46:50;;;;;;;13.33;4.63;;;3.20;97.30;;;;;;4907846;29;20200;-72
2020/12/25 18:49:16;;;;;;;9.53;3.40;;;3.20;97.30;;;;;;4906957;29;20554;-71
2020/12/25 18:51:43;;;;;;;5.53;3.30;;;3.10;97.30;;;;;;4908348;29;20445;-72
2020/12/25 18:54:08;;;;;;;7.20;3.37;;;3.10;97.30;;;;;;4908431;29;20448;-71
2020/12/25 18:56:38;;;;;;;5.93;3.80;;;3.10;97.30;;;;;;4908735;29;20425;-72